South Branch, Michigan
Current Conditions -  °F | °C
As of 8:14 AM on Tuesday 21 Oct 2014 (Local Time) from KOSC Reporting Station
Overcast Overcast  
Wind Chill: 37°   Ceiling: 2100
Heat Index: 44°   Visibility: 10mi
Dew Point: 37°   Wind: 14mph
Humidity: 78%   Direction: 360°N
Pressure: 30.02"   Gusts: 23mph
Location:  44.47°N, 83.89°W
Report Text: KOSC 211214Z AUTO 36012G20KT 10SM OVC021 06/02 A3002 RMK AO2 T00650030
Loading
Personal Weather Stations






























Interactive Weather Map
Tropical Storm Tracking
New forecast layout! Learn more

10-Day Weather Forecast

Advertisements
Track Severe Weather on mobile